sensor_id;sensor_type;location;lat;lon;timestamp;pressure;altitude;pressure_sealevel;temperature;humidity
20630;BME280;17386;43.846;25.950;2022-09-17T00:00:07;100143.78;;;23.42;71.27
20630;BME280;17386;43.846;25.950;2022-09-17T00:02:33;100135.09;;;23.39;71.53
20630;BME280;17386;43.846;25.950;2022-09-17T00:04:59;100136.94;;;23.38;71.28
20630;BME280;17386;43.846;25.950;2022-09-17T00:07:24;100133.63;;;23.27;71.87
20630;BME280;17386;43.846;25.950;2022-09-17T00:09:50;100155.72;;;23.22;72.46
20630;BME280;17386;43.846;25.950;2022-09-17T00:12:15;100153.47;;;23.17;72.47
20630;BME280;17386;43.846;25.950;2022-09-17T00:14:40;100152.59;;;23.17;72.64
20630;BME280;17386;43.846;25.950;2022-09-17T00:17:06;100150.75;;;23.17;72.65
20630;BME280;17386;43.846;25.950;2022-09-17T00:19:31;100157.88;;;23.18;72.50
20630;BME280;17386;43.846;25.950;2022-09-17T00:21:57;100153.88;;;23.23;72.13
20630;BME280;17386;43.846;25.950;2022-09-17T00:24:22;100154.56;;;23.25;72.09
20630;BME280;17386;43.846;25.950;2022-09-17T00:26:48;100158.13;;;23.25;71.85
20630;BME280;17386;43.846;25.950;2022-09-17T00:29:14;100155.41;;;23.25;72.01
20630;BME280;17386;43.846;25.950;2022-09-17T00:31:40;100138.31;;;23.25;72.05
20630;BME280;17386;43.846;25.950;2022-09-17T00:34:06;100144.03;;;23.22;72.11
20630;BME280;17386;43.846;25.950;2022-09-17T00:36:34;100132.34;;;23.21;71.92
20630;BME280;17386;43.846;25.950;2022-09-17T00:39:00;100128.78;;;23.20;71.65
20630;BME280;17386;43.846;25.950;2022-09-17T00:41:28;100123.91;;;23.24;71.34
20630;BME280;17386;43.846;25.950;2022-09-17T00:43:56;100115.38;;;23.19;70.99
20630;BME280;17386;43.846;25.950;2022-09-17T00:46:34;100136.31;;;23.27;70.55
20630;BME280;17386;43.846;25.950;2022-09-17T00:49:23;100121.03;;;23.26;70.54
20630;BME280;17386;43.846;25.950;2022-09-17T00:51:57;100110.81;;;23.19;70.34
20630;BME280;17386;43.846;25.950;2022-09-17T00:54:24;100122.91;;;23.25;70.10
20630;BME280;17386;43.846;25.950;2022-09-17T00:56:50;100119.19;;;23.26;70.22
20630;BME280;17386;43.846;25.950;2022-09-17T00:59:17;100114.66;;;23.27;69.84
20630;BME280;17386;43.846;25.950;2022-09-17T01:01:43;100115.50;;;23.27;69.82
20630;BME280;17386;43.846;25.950;2022-09-17T01:04:17;100116.88;;;23.31;69.78
20630;BME280;17386;43.846;25.950;2022-09-17T01:07:02;100116.03;;;23.31;69.71
20630;BME280;17386;43.846;25.950;2022-09-17T01:09:38;100116.03;;;23.31;69.91
20630;BME280;17386;43.846;25.950;2022-09-17T01:20:50;100113.47;;;23.29;70.00
20630;BME280;17386;43.846;25.950;2022-09-17T01:31:51;100117.56;;;23.33;70.78
20630;BME280;17386;43.846;25.950;2022-09-17T01:37:11;100106.44;;;23.36;71.09
20630;BME280;17386;43.846;25.950;2022-09-17T01:44:51;100109.06;;;23.28;71.79
20630;BME280;17386;43.846;25.950;2022-09-17T01:47:25;100110.41;;;23.14;73.07
20630;BME280;17386;43.846;25.950;2022-09-17T01:50:00;100098.47;;;23.07;73.39
20630;BME280;17386;43.846;25.950;2022-09-17T01:52:27;100093.66;;;23.01;74.04
20630;BME280;17386;43.846;25.950;2022-09-17T01:54:59;100093.41;;;22.95;74.33
20630;BME280;17386;43.846;25.950;2022-09-17T01:57:37;100088.94;;;23.03;73.88
20630;BME280;17386;43.846;25.950;2022-09-17T02:00:12;100068.97;;;23.04;73.71
20630;BME280;17386;43.846;25.950;2022-09-17T02:05:18;100083.19;;;23.16;73.60
20630;BME280;17386;43.846;25.950;2022-09-17T02:07:55;100083.00;;;23.17;73.59
20630;BME280;17386;43.846;25.950;2022-09-17T02:10:26;100060.09;;;23.12;73.35
20630;BME280;17386;43.846;25.950;2022-09-17T02:13:00;100071.88;;;23.20;73.48
20630;BME280;17386;43.846;25.950;2022-09-17T02:15:37;100070.88;;;23.22;73.10
20630;BME280;17386;43.846;25.950;2022-09-17T02:18:19;100072.75;;;23.21;73.01
20630;BME280;17386;43.846;25.950;2022-09-17T02:20:56;100067.44;;;23.19;73.11
20630;BME280;17386;43.846;25.950;2022-09-17T02:23:32;100070.03;;;23.21;73.09
20630;BME280;17386;43.846;25.950;2022-09-17T02:26:04;100075.91;;;23.16;73.40
20630;BME280;17386;43.846;25.950;2022-09-17T02:28:40;100074.63;;;23.11;73.47
20630;BME280;17386;43.846;25.950;2022-09-17T02:31:06;100078.25;;;23.02;73.83
20630;BME280;17386;43.846;25.950;2022-09-17T02:33:33;100063.03;;;23.01;73.78
20630;BME280;17386;43.846;25.950;2022-09-17T02:36:00;100063.28;;;23.07;73.60
20630;BME280;17386;43.846;25.950;2022-09-17T02:38:28;100058.69;;;23.08;73.78
20630;BME280;17386;43.846;25.950;2022-09-17T02:41:13;100063.28;;;23.07;73.97
20630;BME280;17386;43.846;25.950;2022-09-17T02:44:16;100058.84;;;23.06;73.87
20630;BME280;17386;43.846;25.950;2022-09-17T02:47:00;100063.41;;;23.06;74.11
20630;BME280;17386;43.846;25.950;2022-09-17T02:57:37;100061.06;;;22.93;78.39
20630;BME280;17386;43.846;25.950;2022-09-17T03:00:11;100039.66;;;23.00;79.35
20630;BME280;17386;43.846;25.950;2022-09-17T03:02:44;100032.06;;;23.03;79.70
20630;BME280;17386;43.846;25.950;2022-09-17T03:05:12;100027.25;;;22.97;79.77
20630;BME280;17386;43.846;25.950;2022-09-17T03:07:38;100039.22;;;22.67;81.99
20630;BME280;17386;43.846;25.950;2022-09-17T03:10:04;100039.06;;;22.69;82.75
20630;BME280;17386;43.846;25.950;2022-09-17T03:12:30;100035.06;;;22.73;83.03
20630;BME280;17386;43.846;25.950;2022-09-17T03:14:55;100036.75;;;22.74;83.37
20630;BME280;17386;43.846;25.950;2022-09-17T03:17:21;100031.34;;;22.74;84.49
20630;BME280;17386;43.846;25.950;2022-09-17T03:19:46;100021.53;;;22.73;85.13
20630;BME280;17386;43.846;25.950;2022-09-17T03:22:11;100013.53;;;22.71;84.77
20630;BME280;17386;43.846;25.950;2022-09-17T03:24:37;100018.00;;;22.62;85.72
20630;BME280;17386;43.846;25.950;2022-09-17T03:27:02;100023.88;;;22.58;85.88
20630;BME280;17386;43.846;25.950;2022-09-17T03:29:28;100019.31;;;22.58;85.94
20630;BME280;17386;43.846;25.950;2022-09-17T03:31:53;100011.03;;;22.60;85.74
20630;BME280;17386;43.846;25.950;2022-09-17T03:34:19;99997.66;;;22.58;85.96
20630;BME280;17386;43.846;25.950;2022-09-17T03:36:45;99990.81;;;22.54;86.08
20630;BME280;17386;43.846;25.950;2022-09-17T03:39:10;99979.84;;;22.56;86.14
20630;BME280;17386;43.846;25.950;2022-09-17T03:41:36;99981.69;;;22.55;86.17
20630;BME280;17386;43.846;25.950;2022-09-17T03:44:01;99965.03;;;22.50;86.21
20630;BME280;17386;43.846;25.950;2022-09-17T03:46:27;99959.34;;;22.53;86.56
20630;BME280;17386;43.846;25.950;2022-09-17T03:48:52;99961.38;;;22.51;86.58
20630;BME280;17386;43.846;25.950;2022-09-17T03:51:18;99976.03;;;22.49;86.41
20630;BME280;17386;43.846;25.950;2022-09-17T03:53:43;99964.25;;;22.40;87.88
20630;BME280;17386;43.846;25.950;2022-09-17T03:56:09;99966.25;;;22.38;88.83
20630;BME280;17386;43.846;25.950;2022-09-17T03:58:34;99967.56;;;22.34;89.24
20630;BME280;17386;43.846;25.950;2022-09-17T04:01:00;99975.56;;;22.26;89.84
20630;BME280;17386;43.846;25.950;2022-09-17T04:03:27;99969.31;;;22.25;90.91
20630;BME280;17386;43.846;25.950;2022-09-17T04:05:53;99952.25;;;22.05;92.20
20630;BME280;17386;43.846;25.950;2022-09-17T04:08:19;99951.00;;;22.00;92.68
20630;BME280;17386;43.846;25.950;2022-09-17T04:10:45;99946.84;;;22.05;92.79
20630;BME280;17386;43.846;25.950;2022-09-17T04:13:11;99948.28;;;22.09;92.70
20630;BME280;17386;43.846;25.950;2022-09-17T04:15:37;99943.13;;;22.06;92.70
20630;BME280;17386;43.846;25.950;2022-09-17T04:18:03;99935.88;;;22.07;92.99
20630;BME280;17386;43.846;25.950;2022-09-17T04:20:28;99943.56;;;22.02;93.26
20630;BME280;17386;43.846;25.950;2022-09-17T04:22:54;99960.53;;;22.04;93.18
20630;BME280;17386;43.846;25.950;2022-09-17T04:25:19;99959.78;;;22.02;93.12
20630;BME280;17386;43.846;25.950;2022-09-17T04:27:45;99968.47;;;22.05;92.92
20630;BME280;17386;43.846;25.950;2022-09-17T04:30:12;99964.38;;;22.11;92.64
20630;BME280;17386;43.846;25.950;2022-09-17T04:32:38;99960.66;;;22.12;91.96
20630;BME280;17386;43.846;25.950;2022-09-17T04:35:03;99949.13;;;22.00;91.91
20630;BME280;17386;43.846;25.950;2022-09-17T04:37:29;99945.84;;;22.06;91.64
20630;BME280;17386;43.846;25.950;2022-09-17T04:39:54;99951.53;;;22.13;91.22
20630;BME280;17386;43.846;25.950;2022-09-17T04:42:21;99951.50;;;22.23;91.19
20630;BME280;17386;43.846;25.950;2022-09-17T04:44:47;99954.34;;;22.31;91.53
20630;BME280;17386;43.846;25.950;2022-09-17T04:47:12;99957.31;;;22.37;92.84
20630;BME280;17386;43.846;25.950;2022-09-17T04:49:38;99957.56;;;22.44;94.06
20630;BME280;17386;43.846;25.950;2022-09-17T04:52:03;99946.00;;;22.42;95.29
20630;BME280;17386;43.846;25.950;2022-09-17T04:54:29;99934.50;;;22.40;95.61
20630;BME280;17386;43.846;25.950;2022-09-17T04:56:54;99949.56;;;22.43;95.98
20630;BME280;17386;43.846;25.950;2022-09-17T04:59:20;99957.56;;;22.44;95.94
20630;BME280;17386;43.846;25.950;2022-09-17T05:01:45;99951.81;;;22.47;95.96
20630;BME280;17386;43.846;25.950;2022-09-17T05:04:11;99954.84;;;22.44;96.57
20630;BME280;17386;43.846;25.950;2022-09-17T05:06:36;99952.25;;;22.43;97.17
20630;BME280;17386;43.846;25.950;2022-09-17T05:09:01;99946.72;;;22.44;96.99
20630;BME280;17386;43.846;25.950;2022-09-17T05:11:28;99938.03;;;22.41;97.83
20630;BME280;17386;43.846;25.950;2022-09-17T05:13:54;99940.00;;;22.48;98.38
20630;BME280;17386;43.846;25.950;2022-09-17T05:16:20;99941.69;;;22.49;96.93
20630;BME280;17386;43.846;25.950;2022-09-17T05:18:45;99942.00;;;22.46;96.28
20630;BME280;17386;43.846;25.950;2022-09-17T05:21:11;99948.28;;;22.37;97.72
20630;BME280;17386;43.846;25.950;2022-09-17T05:23:37;99958.25;;;22.46;94.49
20630;BME280;17386;43.846;25.950;2022-09-17T05:26:02;99957.09;;;22.49;91.72
20630;BME280;17386;43.846;25.950;2022-09-17T05:28:28;99961.91;;;22.55;87.32
20630;BME280;17386;43.846;25.950;2022-09-17T05:30:53;99945.91;;;22.61;86.25
20630;BME280;17386;43.846;25.950;2022-09-17T05:33:19;99943.59;;;22.66;85.94
20630;BME280;17386;43.846;25.950;2022-09-17T05:35:45;99962.09;;;22.71;85.80
20630;BME280;17386;43.846;25.950;2022-09-17T05:38:10;99951.81;;;22.75;85.65
20630;BME280;17386;43.846;25.950;2022-09-17T05:40:36;99944.69;;;22.74;86.03
20630;BME280;17386;43.846;25.950;2022-09-17T05:43:04;99951.22;;;22.81;87.09
20630;BME280;17386;43.846;25.950;2022-09-17T05:45:32;99952.91;;;22.82;89.32
20630;BME280;17386;43.846;25.950;2022-09-17T05:47:59;99944.47;;;22.85;89.24
20630;BME280;17386;43.846;25.950;2022-09-17T05:50:26;99939.66;;;22.88;85.90
20630;BME280;17386;43.846;25.950;2022-09-17T05:52:52;99937.63;;;22.90;84.73
20630;BME280;17386;43.846;25.950;2022-09-17T05:55:18;99942.44;;;22.97;83.22
20630;BME280;17386;43.846;25.950;2022-09-17T05:57:44;99949.94;;;23.03;83.11
20630;BME280;17386;43.846;25.950;2022-09-17T06:00:10;99946.63;;;23.09;82.96
20630;BME280;17386;43.846;25.950;2022-09-17T06:02:36;99948.16;;;23.11;82.62
20630;BME280;17386;43.846;25.950;2022-09-17T06:05:03;99926.25;;;23.05;82.69
20630;BME280;17386;43.846;25.950;2022-09-17T06:07:29;99938.03;;;23.13;82.48
20630;BME280;17386;43.846;25.950;2022-09-17T06:09:54;99939.75;;;23.14;82.66
20630;BME280;17386;43.846;25.950;2022-09-17T06:12:20;99941.59;;;23.14;82.27
20630;BME280;17386;43.846;25.950;2022-09-17T06:14:45;99943.81;;;23.18;81.95
20630;BME280;17386;43.846;25.950;2022-09-17T06:17:10;99941.28;;;23.17;82.31
20630;BME280;17386;43.846;25.950;2022-09-17T06:19:36;99945.41;;;23.21;81.98
20630;BME280;17386;43.846;25.950;2022-09-17T06:22:01;99935.41;;;23.22;82.50
20630;BME280;17386;43.846;25.950;2022-09-17T06:24:27;99930.06;;;23.30;82.46
20630;BME280;17386;43.846;25.950;2022-09-17T06:26:53;99919.22;;;23.30;82.29
20630;BME280;17386;43.846;25.950;2022-09-17T06:29:19;99926.03;;;23.34;82.25
20630;BME280;17386;43.846;25.950;2022-09-17T06:31:46;99920.28;;;23.37;81.85
20630;BME280;17386;43.846;25.950;2022-09-17T06:34:12;99924.41;;;23.41;81.76
20630;BME280;17386;43.846;25.950;2022-09-17T06:36:38;99924.91;;;23.44;81.34
20630;BME280;17386;43.846;25.950;2022-09-17T06:39:03;99927.84;;;23.51;81.18
20630;BME280;17386;43.846;25.950;2022-09-17T06:41:28;99928.88;;;23.50;80.84
20630;BME280;17386;43.846;25.950;2022-09-17T06:43:54;99937.63;;;23.44;81.03
20630;BME280;17386;43.846;25.950;2022-09-17T06:46:20;99943.44;;;23.49;80.31
20630;BME280;17386;43.846;25.950;2022-09-17T06:48:45;99938.06;;;23.57;79.81
20630;BME280;17386;43.846;25.950;2022-09-17T06:51:12;99942.56;;;23.66;79.63
20630;BME280;17386;43.846;25.950;2022-09-17T06:53:39;99963.13;;;23.69;79.19
20630;BME280;17386;43.846;25.950;2022-09-17T06:56:06;99948.84;;;23.67;79.09
20630;BME280;17386;43.846;25.950;2022-09-17T06:58:33;99940.63;;;23.77;79.06
20630;BME280;17386;43.846;25.950;2022-09-17T07:01:02;99948.25;;;23.81;78.40
20630;BME280;17386;43.846;25.950;2022-09-17T07:03:28;99946.97;;;23.67;79.19
20630;BME280;17386;43.846;25.950;2022-09-17T07:05:54;99932.78;;;23.73;79.42
20630;BME280;17386;43.846;25.950;2022-09-17T07:08:20;99938.66;;;23.87;79.23
20630;BME280;17386;43.846;25.950;2022-09-17T07:10:45;99936.47;;;23.90;78.77
20630;BME280;17386;43.846;25.950;2022-09-17T07:13:10;99944.50;;;24.00;78.13
20630;BME280;17386;43.846;25.950;2022-09-17T07:15:36;99945.88;;;24.04;77.55
20630;BME280;17386;43.846;25.950;2022-09-17T07:18:08;99947.25;;;24.08;78.52
20630;BME280;17386;43.846;25.950;2022-09-17T07:20:34;99949.31;;;24.14;78.53
20630;BME280;17386;43.846;25.950;2022-09-17T07:23:00;99943.25;;;24.20;78.30
20630;BME280;17386;43.846;25.950;2022-09-17T07:25:25;99940.50;;;24.12;77.85
20630;BME280;17386;43.846;25.950;2022-09-17T07:27:51;99938.00;;;24.19;77.47
20630;BME280;17386;43.846;25.950;2022-09-17T07:30:18;99950.97;;;24.33;77.45
20630;BME280;17386;43.846;25.950;2022-09-17T07:32:43;99959.13;;;24.33;76.83
20630;BME280;17386;43.846;25.950;2022-09-17T07:35:08;99959.66;;;24.37;77.34
20630;BME280;17386;43.846;25.950;2022-09-17T07:37:34;99962.22;;;24.38;77.56
20630;BME280;17386;43.846;25.950;2022-09-17T07:39:59;99960.19;;;24.40;77.44
20630;BME280;17386;43.846;25.950;2022-09-17T07:42:25;99956.28;;;24.43;77.64
20630;BME280;17386;43.846;25.950;2022-09-17T07:44:52;99947.34;;;24.50;77.44
20630;BME280;17386;43.846;25.950;2022-09-17T07:47:18;99931.56;;;24.54;78.09
20630;BME280;17386;43.846;25.950;2022-09-17T07:49:44;99918.19;;;24.61;77.96
20630;BME280;17386;43.846;25.950;2022-09-17T07:52:09;99909.72;;;24.72;77.22
20630;BME280;17386;43.846;25.950;2022-09-17T07:54:35;99915.84;;;24.82;76.77
20630;BME280;17386;43.846;25.950;2022-09-17T07:57:03;99918.59;;;24.90;76.30
20630;BME280;17386;43.846;25.950;2022-09-17T07:59:29;99928.47;;;24.99;76.39
20630;BME280;17386;43.846;25.950;2022-09-17T08:01:54;99941.41;;;25.05;75.68
20630;BME280;17386;43.846;25.950;2022-09-17T08:04:20;99939.16;;;25.01;76.16
20630;BME280;17386;43.846;25.950;2022-09-17T08:06:45;99941.75;;;25.10;75.90
20630;BME280;17386;43.846;25.950;2022-09-17T08:09:13;99951.09;;;25.08;76.47
20630;BME280;17386;43.846;25.950;2022-09-17T08:11:40;99958.72;;;25.04;80.01
20630;BME280;17386;43.846;25.950;2022-09-17T08:14:09;99954.66;;;25.08;79.92
20630;BME280;17386;43.846;25.950;2022-09-17T08:16:34;99959.44;;;25.23;79.90
20630;BME280;17386;43.846;25.950;2022-09-17T08:19:00;99951.78;;;25.18;79.04
20630;BME280;17386;43.846;25.950;2022-09-17T08:21:26;99940.75;;;25.28;79.13
20630;BME280;17386;43.846;25.950;2022-09-17T08:23:52;99955.38;;;25.43;78.44
20630;BME280;17386;43.846;25.950;2022-09-17T08:26:21;99953.16;;;25.55;78.14
20630;BME280;17386;43.846;25.950;2022-09-17T08:28:49;99935.16;;;25.62;77.97
20630;BME280;17386;43.846;25.950;2022-09-17T08:31:17;99928.69;;;25.79;77.53
20630;BME280;17386;43.846;25.950;2022-09-17T08:33:43;99922.38;;;25.87;76.77
20630;BME280;17386;43.846;25.950;2022-09-17T08:36:11;99928.47;;;26.05;75.69
20630;BME280;17386;43.846;25.950;2022-09-17T08:38:37;99929.75;;;26.26;75.02
20630;BME280;17386;43.846;25.950;2022-09-17T08:46:20;99947.53;;;26.92;70.81
20630;BME280;17386;43.846;25.950;2022-09-17T08:49:01;99939.06;;;27.18;69.97
20630;BME280;17386;43.846;25.950;2022-09-17T08:51:45;99938.06;;;27.11;68.99
20630;BME280;17386;43.846;25.950;2022-09-17T08:57:25;99930.91;;;26.79;70.97
20630;BME280;17386;43.846;25.950;2022-09-17T09:00:06;99922.69;;;26.87;70.56
20630;BME280;17386;43.846;25.950;2022-09-17T09:05:13;99931.47;;;26.97;68.78
20630;BME280;17386;43.846;25.950;2022-09-17T09:07:45;99933.09;;;26.83;69.28
20630;BME280;17386;43.846;25.950;2022-09-17T09:10:17;99938.91;;;26.80;69.35
20630;BME280;17386;43.846;25.950;2022-09-17T09:12:44;99950.75;;;26.64;69.76
20630;BME280;17386;43.846;25.950;2022-09-17T09:15:35;99951.41;;;26.66;70.67
20630;BME280;17386;43.846;25.950;2022-09-17T09:18:11;99944.50;;;26.87;69.70
20630;BME280;17386;43.846;25.950;2022-09-17T09:20:52;99947.19;;;26.56;70.06
20630;BME280;17386;43.846;25.950;2022-09-17T09:25:56;99961.16;;;26.92;68.72
20630;BME280;17386;43.846;25.950;2022-09-17T09:33:52;99958.34;;;27.31;66.84
20630;BME280;17386;43.846;25.950;2022-09-17T09:36:18;99950.41;;;27.44;66.19
20630;BME280;17386;43.846;25.950;2022-09-17T09:39:02;99948.03;;;27.26;65.22
20630;BME280;17386;43.846;25.950;2022-09-17T09:44:03;99937.97;;;27.27;63.80
20630;BME280;17386;43.846;25.950;2022-09-17T10:00:35;99944.19;;;27.36;63.83
20630;BME280;17386;43.846;25.950;2022-09-17T10:06:01;99938.69;;;27.59;62.81
20630;BME280;17386;43.846;25.950;2022-09-17T10:08:29;99947.34;;;27.70;61.37
20630;BME280;17386;43.846;25.950;2022-09-17T10:13:28;99936.19;;;27.80;58.53
20630;BME280;17386;43.846;25.950;2022-09-17T10:15:54;99932.41;;;27.96;58.77
20630;BME280;17386;43.846;25.950;2022-09-17T10:18:23;99941.66;;;28.10;57.46
20630;BME280;17386;43.846;25.950;2022-09-17T10:20:59;99944.56;;;27.93;54.28
20630;BME280;17386;43.846;25.950;2022-09-17T10:23:29;99942.41;;;28.03;53.38
20630;BME280;17386;43.846;25.950;2022-09-17T10:25:58;99949.84;;;28.10;54.23
20630;BME280;17386;43.846;25.950;2022-09-17T10:31:04;99942.59;;;27.87;53.85
20630;BME280;17386;43.846;25.950;2022-09-17T10:33:32;99939.38;;;27.98;53.77
20630;BME280;17386;43.846;25.950;2022-09-17T10:36:04;99941.75;;;28.16;53.17
20630;BME280;17386;43.846;25.950;2022-09-17T10:38:31;99942.69;;;28.23;53.25
20630;BME280;17386;43.846;25.950;2022-09-17T10:43:35;99953.44;;;28.40;51.93
20630;BME280;17386;43.846;25.950;2022-09-17T10:46:01;99951.31;;;28.35;52.66
20630;BME280;17386;43.846;25.950;2022-09-17T10:48:36;99947.91;;;28.33;53.06
20630;BME280;17386;43.846;25.950;2022-09-17T10:51:03;99947.66;;;28.20;53.49
20630;BME280;17386;43.846;25.950;2022-09-17T10:53:52;99953.06;;;28.28;53.33
20630;BME280;17386;43.846;25.950;2022-09-17T10:56:33;99954.06;;;27.97;54.56
20630;BME280;17386;43.846;25.950;2022-09-17T11:10:29;99966.56;;;27.92;56.06
20630;BME280;17386;43.846;25.950;2022-09-17T11:13:21;99961.03;;;28.00;55.55
20630;BME280;17386;43.846;25.950;2022-09-17T11:16:04;99957.63;;;27.83;55.96
20630;BME280;17386;43.846;25.950;2022-09-17T11:19:01;99964.66;;;27.77;56.56
20630;BME280;17386;43.846;25.950;2022-09-17T11:21:40;99974.53;;;27.78;56.64
20630;BME280;17386;43.846;25.950;2022-09-17T11:30:18;99983.00;;;27.46;56.52
20630;BME280;17386;43.846;25.950;2022-09-17T11:35:35;100005.38;;;27.10;57.40
20630;BME280;17386;43.846;25.950;2022-09-17T11:38:29;100018.34;;;27.00;57.85
20630;BME280;17386;43.846;25.950;2022-09-17T11:43:36;100056.59;;;26.84;57.72
20630;BME280;17386;43.846;25.950;2022-09-17T11:48:38;100055.59;;;26.68;58.65
20630;BME280;17386;43.846;25.950;2022-09-17T11:51:32;100063.59;;;26.78;59.59
20630;BME280;17386;43.846;25.950;2022-09-17T11:56:41;100051.19;;;26.67;59.93
20630;BME280;17386;43.846;25.950;2022-09-17T11:59:18;100053.69;;;26.85;59.43
20630;BME280;17386;43.846;25.950;2022-09-17T12:01:54;100059.97;;;26.86;59.01
20630;BME280;17386;43.846;25.950;2022-09-17T12:09:50;100075.25;;;26.48;60.65
20630;BME280;17386;43.846;25.950;2022-09-17T12:12:20;100073.22;;;26.25;61.23
20630;BME280;17386;43.846;25.950;2022-09-17T12:14:56;100073.22;;;26.17;62.11
20630;BME280;17386;43.846;25.950;2022-09-17T12:17:27;100071.16;;;26.19;63.82
20630;BME280;17386;43.846;25.950;2022-09-17T12:20:02;100067.25;;;26.13;65.69
20630;BME280;17386;43.846;25.950;2022-09-17T12:22:33;100052.31;;;26.09;65.41
20630;BME280;17386;43.846;25.950;2022-09-17T12:25:00;100042.59;;;25.99;65.79
20630;BME280;17386;43.846;25.950;2022-09-17T12:27:29;100015.72;;;26.12;66.84
20630;BME280;17386;43.846;25.950;2022-09-17T12:30:09;99994.78;;;26.12;66.79
20630;BME280;17386;43.846;25.950;2022-09-17T12:41:09;100004.69;;;25.73;70.53
20630;BME280;17386;43.846;25.950;2022-09-17T12:44:23;100006.25;;;25.75;72.25
20630;BME280;17386;43.846;25.950;2022-09-17T12:54:52;100015.72;;;25.63;75.00
20630;BME280;17386;43.846;25.950;2022-09-17T13:00:12;99979.00;;;25.43;77.14
20630;BME280;17386;43.846;25.950;2022-09-17T13:03:01;99965.69;;;25.07;77.61
20630;BME280;17386;43.846;25.950;2022-09-17T13:16:22;99932.59;;;25.85;73.39
20630;BME280;17386;43.846;25.950;2022-09-17T13:21:53;99937.31;;;25.99;72.36
20630;BME280;17386;43.846;25.950;2022-09-17T13:24:26;99923.19;;;26.04;71.65
20630;BME280;17386;43.846;25.950;2022-09-17T13:26:55;99913.81;;;26.06;72.14
20630;BME280;17386;43.846;25.950;2022-09-17T13:40:25;99872.34;;;26.52;69.90
20630;BME280;17386;43.846;25.950;2022-09-17T13:42:54;99860.41;;;26.53;69.62
20630;BME280;17386;43.846;25.950;2022-09-17T13:45:21;99864.47;;;26.57;69.41
20630;BME280;17386;43.846;25.950;2022-09-17T13:47:56;99851.16;;;26.62;68.82
20630;BME280;17386;43.846;25.950;2022-09-17T13:53:05;99845.16;;;26.66;67.92
20630;BME280;17386;43.846;25.950;2022-09-17T13:55:42;99837.31;;;26.71;67.71
20630;BME280;17386;43.846;25.950;2022-09-17T13:58:32;99834.09;;;26.68;68.27
20630;BME280;17386;43.846;25.950;2022-09-17T14:01:04;99834.28;;;26.66;67.76
20630;BME280;17386;43.846;25.950;2022-09-17T14:06:44;99828.22;;;26.56;67.28
20630;BME280;17386;43.846;25.950;2022-09-17T14:13:50;99784.22;;;26.44;67.98
20630;BME280;17386;43.846;25.950;2022-09-17T14:19:01;99781.97;;;26.48;68.07
20630;BME280;17386;43.846;25.950;2022-09-17T14:21:32;99761.72;;;26.51;68.39
20630;BME280;17386;43.846;25.950;2022-09-17T14:24:19;99751.47;;;26.53;68.16
20630;BME280;17386;43.846;25.950;2022-09-17T14:32:07;99738.25;;;26.41;68.11
20630;BME280;17386;43.846;25.950;2022-09-17T14:34:35;99735.09;;;26.30;68.96
20630;BME280;17386;43.846;25.950;2022-09-17T14:37:01;99741.13;;;26.17;69.29
20630;BME280;17386;43.846;25.950;2022-09-17T14:39:33;99752.84;;;25.95;70.59
20630;BME280;17386;43.846;25.950;2022-09-17T14:42:03;99765.22;;;25.97;70.32
20630;BME280;17386;43.846;25.950;2022-09-17T14:44:30;99778.16;;;25.95;70.72
20630;BME280;17386;43.846;25.950;2022-09-17T14:47:05;99783.75;;;25.94;69.63
20630;BME280;17386;43.846;25.950;2022-09-17T14:49:36;99793.47;;;25.96;69.10
20630;BME280;17386;43.846;25.950;2022-09-17T14:52:23;99791.78;;;25.95;69.13
20630;BME280;17386;43.846;25.950;2022-09-17T14:55:04;99805.53;;;25.94;69.72
20630;BME280;17386;43.846;25.950;2022-09-17T14:57:33;99810.56;;;25.57;70.26
20630;BME280;17386;43.846;25.950;2022-09-17T14:59:59;99809.75;;;25.49;71.34
20630;BME280;17386;43.846;25.950;2022-09-17T15:02:31;99821.63;;;25.48;72.04
20630;BME280;17386;43.846;25.950;2022-09-17T15:04:58;99823.66;;;25.54;72.23
20630;BME280;17386;43.846;25.950;2022-09-17T15:07:25;99830.66;;;25.40;72.90
20630;BME280;17386;43.846;25.950;2022-09-17T15:09:51;99828.28;;;25.37;73.85
20630;BME280;17386;43.846;25.950;2022-09-17T15:12:23;99838.81;;;25.40;74.14
20630;BME280;17386;43.846;25.950;2022-09-17T15:14:53;99850.19;;;25.11;76.50
20630;BME280;17386;43.846;25.950;2022-09-17T15:17:19;99851.00;;;25.03;76.86
20630;BME280;17386;43.846;25.950;2022-09-17T15:19:47;99843.88;;;24.94;78.00
20630;BME280;17386;43.846;25.950;2022-09-17T15:22:31;99850.72;;;25.06;77.16
20630;BME280;17386;43.846;25.950;2022-09-17T15:25:16;99838.78;;;24.83;78.21
20630;BME280;17386;43.846;25.950;2022-09-17T15:27:45;99836.91;;;24.75;78.22
20630;BME280;17386;43.846;25.950;2022-09-17T15:30:18;99834.53;;;24.72;78.53
20630;BME280;17386;43.846;25.950;2022-09-17T15:40:32;99839.66;;;24.92;77.19
20630;BME280;17386;43.846;25.950;2022-09-17T15:43:05;99833.03;;;24.94;77.18
20630;BME280;17386;43.846;25.950;2022-09-17T15:45:38;99834.72;;;24.87;77.51
20630;BME280;17386;43.846;25.950;2022-09-17T15:48:32;99834.38;;;24.82;78.15
20630;BME280;17386;43.846;25.950;2022-09-17T15:51:00;99827.91;;;24.75;78.83
20630;BME280;17386;43.846;25.950;2022-09-17T15:53:27;99819.59;;;24.68;79.12
20630;BME280;17386;43.846;25.950;2022-09-17T16:11:21;99805.34;;;24.66;79.19
20630;BME280;17386;43.846;25.950;2022-09-17T16:13:48;99802.63;;;24.66;79.38
20630;BME280;17386;43.846;25.950;2022-09-17T16:16:15;99792.59;;;24.67;79.48
20630;BME280;17386;43.846;25.950;2022-09-17T16:18:41;99788.19;;;24.66;79.41
20630;BME280;17386;43.846;25.950;2022-09-17T16:21:10;99770.53;;;24.62;79.11